Brookville, Kansas
Current Conditions -  °F | °C
As of 12:53 AM on Sunday 21 Dec 2014 (Local Time) from KSLN Reporting Station
Clear Clear  
Wind Chill: 33°   Ceiling: Unl
Heat Index: 39°   Visibility: 10mi
Dew Point: 36°   Wind: 8mph
Humidity: 89%   Direction: 180°S
Pressure: 30.03"   Gusts: NA
Location:  38.78°N, 97.87°W
Report Text: KSLN 210653Z AUTO 18007KT 10SM CLR 04/02 A3003 RMK AO2 SLP173 T00390022
Loading
Personal Weather Stations






























Interactive Weather Map New forecast layout! Learn more

10-Day Weather Forecast

Advertisements
Track Severe Weather on mobile